Patillas, PR (00723)

3:20 PM AST on October 18, 2018 (GMT -0400)
KPRPALMA2 | | Change Station

Elev 16 ft 17.98 °N, 66.02 °W | Updated 33 seconds ago

Clear
Clear
84 °F
Feels Like 96 °F
N
5.4
Wind Variable Wind from NNE
Gusts 11.4 mph

Today
High -- | Low -- °F
--% Chance of Precip.
Yesterday
High -- | Low -- °F
Precip. -- in
Pressure 29.95 in
Visibility 9.0 miles
Clouds Clear
Heat Index 96 °F
Dew Point 79 °F
Humidity 84%
Rainfall 0.03 in
Snow Depth Not available.
6:18 AM 5:59 PM
Waxing Gibbous, 69% visible
METAR TJNR 181853Z AUTO 04010G17KT 9SM CLR 30/25 A2995 RMK AO2 SLP140 T03000250
Pressure 29.95 in
Visibility 9.0 miles
Clouds Clear
Heat Index 96 °F
Dew Point 79 °F
Humidity 84%
Rainfall 0.03 in
Snow Depth Not available.
6:18 AM 5:59 PM
Waxing Gibbous, 69% visible
METAR TJNR 181853Z AUTO 04010G17KT 9SM CLR 30/25 A2995 RMK AO2 SLP140 T03000250

Get Severe Weather Alerts

Thanks for signing up!

Be on the lookout for a verification email in your inbox.

You'll start receiving the daily forecast at 6 AM.

×

10-Day Weather Forecast

Almanac

Astronomy

Oct. 18, 2018 Rise Set
Actual Time
Civil Twilight
Nautical Twilight
Astronomical Twilight
Moon
Length of Visible Light
Length of Day
Tomorrow will be .
, % of the Moon is Illuminated

Today's Extremes

State Highs State Lows

Community

WunderPhotos

Category 6

Welcome to Category 6. This is the collective home for Weather Underground's featured writeups by Dr. Jeff Masters (right), Bob Henson (left), Chris Burt, and other regular contributors.

Nearby

Air Quality

  Air Quality AQ Index Pollutant
Not available.

Snow Depth

Station Depth Elevation

Earthquake Activity

City Distance Mag. Time & Date
Minimum magnitude displayed is 2.5.

Coastal Water Temperatures

Place Temperature

Stations

Nearby Weather Stations

Station Location Temp. Windchill Dew Point Humidity Wind Precip. Elev Updated Type
                   

Watches & Warnings

There are currently no watches in effect.